sensor_id;sensor_type;location;lat;lon;timestamp;pressure;altitude;pressure_sealevel;temperature;humidity
36222;BME280;22266;52.340;4.962;2022-07-23T00:01:05;101961.56;;;17.51;61.47
36222;BME280;22266;52.340;4.962;2022-07-23T00:03:31;101952.56;;;17.50;61.57
36222;BME280;22266;52.340;4.962;2022-07-23T00:05:58;101951.69;;;17.50;61.50
36222;BME280;22266;52.340;4.962;2022-07-23T00:08:24;101952.97;;;17.47;61.86
36222;BME280;22266;52.340;4.962;2022-07-23T00:10:51;101951.31;;;17.46;61.62
36222;BME280;22266;52.340;4.962;2022-07-23T00:13:17;101943.34;;;17.45;61.56
36222;BME280;22266;52.340;4.962;2022-07-23T00:15:44;101952.56;;;17.44;61.73
36222;BME280;22266;52.340;4.962;2022-07-23T00:18:10;101949.41;;;17.40;61.84
36222;BME280;22266;52.340;4.962;2022-07-23T00:20:37;101950.47;;;17.39;61.63
36222;BME280;22266;52.340;4.962;2022-07-23T00:23:03;101948.81;;;17.38;61.55
36222;BME280;22266;52.340;4.962;2022-07-23T00:25:30;101947.94;;;17.38;62.01
36222;BME280;22266;52.340;4.962;2022-07-23T00:27:58;101940.00;;;17.36;61.76
36222;BME280;22266;52.340;4.962;2022-07-23T00:30:26;101947.56;;;17.34;61.69
36222;BME280;22266;52.340;4.962;2022-07-23T00:32:57;101940.44;;;17.33;61.66
36222;BME280;22266;52.340;4.962;2022-07-23T00:35:27;101943.59;;;17.30;61.70
36222;BME280;22266;52.340;4.962;2022-07-23T00:37:54;101931.25;;;17.27;61.71
36222;BME280;22266;52.340;4.962;2022-07-23T00:40:22;101926.84;;;17.26;61.56
36222;BME280;22266;52.340;4.962;2022-07-23T00:42:48;101930.59;;;17.25;61.93
36222;BME280;22266;52.340;4.962;2022-07-23T00:45:15;101930.00;;;17.23;61.98
36222;BME280;22266;52.340;4.962;2022-07-23T00:47:41;101930.00;;;17.23;61.74
36222;BME280;22266;52.340;4.962;2022-07-23T00:50:09;101926.03;;;17.19;62.07
36222;BME280;22266;52.340;4.962;2022-07-23T00:52:37;101933.53;;;17.17;61.92
36222;BME280;22266;52.340;4.962;2022-07-23T00:55:05;101935.66;;;17.15;62.02
36222;BME280;22266;52.340;4.962;2022-07-23T00:57:32;101923.09;;;17.14;62.49
36222;BME280;22266;52.340;4.962;2022-07-23T00:59:59;101923.53;;;17.11;62.66
36222;BME280;22266;52.340;4.962;2022-07-23T01:02:26;101919.31;;;17.09;62.68
36222;BME280;22266;52.340;4.962;2022-07-23T01:04:53;101923.09;;;17.08;62.50
36222;BME280;22266;52.340;4.962;2022-07-23T01:07:21;101916.19;;;17.05;62.47
36222;BME280;22266;52.340;4.962;2022-07-23T01:09:49;101917.47;;;17.02;62.67
36222;BME280;22266;52.340;4.962;2022-07-23T01:12:16;101912.22;;;17.01;62.64
36222;BME280;22266;52.340;4.962;2022-07-23T01:14:42;101907.63;;;17.01;62.52
36222;BME280;22266;52.340;4.962;2022-07-23T01:17:09;101908.66;;;17.00;62.45
36222;BME280;22266;52.340;4.962;2022-07-23T01:19:36;101912.66;;;16.98;62.48
36222;BME280;22266;52.340;4.962;2022-07-23T01:22:03;101905.09;;;16.93;62.77
36222;BME280;22266;52.340;4.962;2022-07-23T01:24:30;101892.56;;;16.92;62.78
36222;BME280;22266;52.340;4.962;2022-07-23T01:27:03;101902.00;;;16.90;62.75
36222;BME280;22266;52.340;4.962;2022-07-23T01:29:33;101888.81;;;16.87;62.89
36222;BME280;22266;52.340;4.962;2022-07-23T01:32:04;101890.88;;;16.85;62.87
36222;BME280;22266;52.340;4.962;2022-07-23T01:34:31;101894.66;;;16.84;63.15
36222;BME280;22266;52.340;4.962;2022-07-23T01:36:58;101892.16;;;16.82;63.23
36222;BME280;22266;52.340;4.962;2022-07-23T01:39:24;101897.19;;;16.78;63.32
36222;BME280;22266;52.340;4.962;2022-07-23T01:41:52;101895.50;;;16.77;63.44
36222;BME280;22266;52.340;4.962;2022-07-23T01:44:20;101891.94;;;16.77;63.28
36222;BME280;22266;52.340;4.962;2022-07-23T01:46:47;101884.22;;;16.74;63.06
36222;BME280;22266;52.340;4.962;2022-07-23T01:49:14;101886.47;;;16.70;63.37
36222;BME280;22266;52.340;4.962;2022-07-23T01:52:00;101887.94;;;16.66;63.84
36222;BME280;22266;52.340;4.962;2022-07-23T01:54:40;101887.53;;;16.63;63.77
36222;BME280;22266;52.340;4.962;2022-07-23T01:57:08;101892.75;;;16.64;64.17
36222;BME280;22266;52.340;4.962;2022-07-23T01:59:35;101894.84;;;16.62;64.10
36222;BME280;22266;52.340;4.962;2022-07-23T02:02:02;101892.31;;;16.61;63.69
36222;BME280;22266;52.340;4.962;2022-07-23T02:04:30;101884.38;;;16.59;63.78
36222;BME280;22266;52.340;4.962;2022-07-23T02:06:56;101889.00;;;16.59;63.62
36222;BME280;22266;52.340;4.962;2022-07-23T02:09:25;101882.91;;;16.56;63.75
36222;BME280;22266;52.340;4.962;2022-07-23T02:11:51;101877.91;;;16.53;63.88
36222;BME280;22266;52.340;4.962;2022-07-23T02:14:18;101884.59;;;16.51;63.58
36222;BME280;22266;52.340;4.962;2022-07-23T02:16:45;101887.31;;;16.51;63.44
36222;BME280;22266;52.340;4.962;2022-07-23T02:19:13;101886.69;;;16.49;63.60
36222;BME280;22266;52.340;4.962;2022-07-23T02:21:40;101892.53;;;16.46;63.47
36222;BME280;22266;52.340;4.962;2022-07-23T02:24:06;101902.56;;;16.45;63.75
36222;BME280;22266;52.340;4.962;2022-07-23T02:26:33;101891.88;;;16.44;63.88
36222;BME280;22266;52.340;4.962;2022-07-23T02:29:04;101895.66;;;16.43;63.82
36222;BME280;22266;52.340;4.962;2022-07-23T02:31:31;101897.53;;;16.42;63.67
36222;BME280;22266;52.340;4.962;2022-07-23T02:33:58;101893.78;;;16.43;63.61
36222;BME280;22266;52.340;4.962;2022-07-23T02:36:26;101904.66;;;16.43;63.25
36222;BME280;22266;52.340;4.962;2022-07-23T02:38:54;101904.66;;;16.43;62.93
36222;BME280;22266;52.340;4.962;2022-07-23T02:41:20;101906.31;;;16.44;63.17
36222;BME280;22266;52.340;4.962;2022-07-23T02:43:47;101910.72;;;16.45;63.19
36222;BME280;22266;52.340;4.962;2022-07-23T02:46:14;101911.56;;;16.46;63.00
36222;BME280;22266;52.340;4.962;2022-07-23T02:48:41;101919.72;;;16.46;62.90
36222;BME280;22266;52.340;4.962;2022-07-23T02:51:08;101917.84;;;16.46;63.29
36222;BME280;22266;52.340;4.962;2022-07-23T02:53:43;101926.81;;;16.47;63.30
36222;BME280;22266;52.340;4.962;2022-07-23T02:56:09;101922.22;;;16.47;63.40
36222;BME280;22266;52.340;4.962;2022-07-23T02:58:36;101922.22;;;16.47;63.51
36222;BME280;22266;52.340;4.962;2022-07-23T03:01:03;101920.56;;;16.46;63.65
36222;BME280;22266;52.340;4.962;2022-07-23T03:03:29;101922.44;;;16.46;63.10
36222;BME280;22266;52.340;4.962;2022-07-23T03:05:56;101924.72;;;16.42;63.27
36222;BME280;22266;52.340;4.962;2022-07-23T03:08:23;101925.97;;;16.40;63.13
36222;BME280;22266;52.340;4.962;2022-07-23T03:10:51;101920.97;;;16.37;63.36
36222;BME280;22266;52.340;4.962;2022-07-23T03:13:18;101915.28;;;16.31;63.31
36222;BME280;22266;52.340;4.962;2022-07-23T03:15:44;101918.41;;;16.28;63.66
36222;BME280;22266;52.340;4.962;2022-07-23T03:18:11;101922.56;;;16.24;63.57
36222;BME280;22266;52.340;4.962;2022-07-23T03:20:37;101914.66;;;16.23;64.09
36222;BME280;22266;52.340;4.962;2022-07-23T03:23:04;101911.09;;;16.22;64.10
36222;BME280;22266;52.340;4.962;2022-07-23T03:25:31;101912.97;;;16.22;64.28
36222;BME280;22266;52.340;4.962;2022-07-23T03:27:58;101911.50;;;16.19;64.08
36222;BME280;22266;52.340;4.962;2022-07-23T03:30:27;101910.06;;;16.17;64.01
36222;BME280;22266;52.340;4.962;2022-07-23T03:32:53;101909.63;;;16.13;64.40
36222;BME280;22266;52.340;4.962;2022-07-23T03:35:20;101905.63;;;16.09;64.65
36222;BME280;22266;52.340;4.962;2022-07-23T03:38:05;101902.50;;;16.05;64.47
36222;BME280;22266;52.340;4.962;2022-07-23T03:40:32;101906.66;;;16.01;64.57
36222;BME280;22266;52.340;4.962;2022-07-23T03:42:58;101907.88;;;15.99;64.98
36222;BME280;22266;52.340;4.962;2022-07-23T03:45:25;101905.56;;;15.96;65.08
36222;BME280;22266;52.340;4.962;2022-07-23T03:47:52;101897.84;;;15.93;64.80
36222;BME280;22266;52.340;4.962;2022-07-23T03:50:18;101904.53;;;15.90;64.97
36222;BME280;22266;52.340;4.962;2022-07-23T03:52:45;101900.31;;;15.88;65.41
36222;BME280;22266;52.340;4.962;2022-07-23T03:55:12;101903.03;;;15.88;65.30
36222;BME280;22266;52.340;4.962;2022-07-23T03:57:38;101900.31;;;15.88;65.16
36222;BME280;22266;52.340;4.962;2022-07-23T04:00:05;101905.75;;;15.88;65.33
36222;BME280;22266;52.340;4.962;2022-07-23T04:02:39;101907.25;;;15.90;65.62
36222;BME280;22266;52.340;4.962;2022-07-23T04:05:07;101908.91;;;15.91;65.44
36222;BME280;22266;52.340;4.962;2022-07-23T04:07:34;101916.03;;;15.92;65.35
36222;BME280;22266;52.340;4.962;2022-07-23T04:10:00;101915.81;;;15.94;65.53
36222;BME280;22266;52.340;4.962;2022-07-23T04:12:27;101912.88;;;15.95;65.47
36222;BME280;22266;52.340;4.962;2022-07-23T04:14:54;101911.22;;;15.94;65.23
36222;BME280;22266;52.340;4.962;2022-07-23T04:17:20;101915.81;;;15.94;65.25
36222;BME280;22266;52.340;4.962;2022-07-23T04:19:47;101913.31;;;15.92;65.32
36222;BME280;22266;52.340;4.962;2022-07-23T04:22:18;101920.19;;;15.95;65.46
36222;BME280;22266;52.340;4.962;2022-07-23T04:24:44;101921.88;;;15.96;65.11
36222;BME280;22266;52.340;4.962;2022-07-23T04:27:11;101917.31;;;15.96;65.45
36222;BME280;22266;52.340;4.962;2022-07-23T04:29:38;101918.97;;;15.97;65.44
36222;BME280;22266;52.340;4.962;2022-07-23T04:32:05;101920.63;;;15.98;64.95
36222;BME280;22266;52.340;4.962;2022-07-23T04:34:32;101918.34;;;16.02;64.77
36222;BME280;22266;52.340;4.962;2022-07-23T04:36:59;101921.69;;;16.04;64.90
36222;BME280;22266;52.340;4.962;2022-07-23T04:39:28;101917.53;;;16.08;64.79
36222;BME280;22266;52.340;4.962;2022-07-23T04:41:54;101917.78;;;16.13;64.58
36222;BME280;22266;52.340;4.962;2022-07-23T04:44:21;101916.72;;;16.14;64.63
36222;BME280;22266;52.340;4.962;2022-07-23T04:46:47;101917.16;;;16.18;64.57
36222;BME280;22266;52.340;4.962;2022-07-23T04:49:16;101926.75;;;16.20;64.56
36222;BME280;22266;52.340;4.962;2022-07-23T04:51:44;101930.13;;;16.22;64.46
36222;BME280;22266;52.340;4.962;2022-07-23T04:54:11;101929.06;;;16.23;64.07
36222;BME280;22266;52.340;4.962;2022-07-23T04:56:37;101925.50;;;16.23;64.24
36222;BME280;22266;52.340;4.962;2022-07-23T04:59:04;101920.09;;;16.23;64.35
36222;BME280;22266;52.340;4.962;2022-07-23T05:01:31;101918.84;;;16.25;63.83
36222;BME280;22266;52.340;4.962;2022-07-23T05:03:58;101920.72;;;16.31;64.01
36222;BME280;22266;52.340;4.962;2022-07-23T05:06:28;101916.38;;;16.37;64.04
36222;BME280;22266;52.340;4.962;2022-07-23T05:08:55;101918.06;;;16.45;63.78
36222;BME280;22266;52.340;4.962;2022-07-23T05:11:22;101923.47;;;16.51;63.85
36222;BME280;22266;52.340;4.962;2022-07-23T05:13:53;101920.13;;;16.56;63.68
36222;BME280;22266;52.340;4.962;2022-07-23T05:16:20;101926.00;;;16.60;63.89
36222;BME280;22266;52.340;4.962;2022-07-23T05:18:47;101926.41;;;16.63;63.62
36222;BME280;22266;52.340;4.962;2022-07-23T05:21:13;101934.16;;;16.66;63.37
36222;BME280;22266;52.340;4.962;2022-07-23T05:23:40;101932.91;;;16.69;63.39
36222;BME280;22266;52.340;4.962;2022-07-23T05:26:07;101929.78;;;16.72;63.04
36222;BME280;22266;52.340;4.962;2022-07-23T05:28:35;101928.75;;;16.73;63.14
36222;BME280;22266;52.340;4.962;2022-07-23T05:31:01;101923.50;;;16.71;62.85
36222;BME280;22266;52.340;4.962;2022-07-23T05:33:30;101923.13;;;16.74;62.66
36222;BME280;22266;52.340;4.962;2022-07-23T05:36:04;101937.31;;;16.76;62.87
36222;BME280;22266;52.340;4.962;2022-07-23T05:38:33;101937.13;;;16.78;63.07
36222;BME280;22266;52.340;4.962;2022-07-23T05:41:02;101930.88;;;16.77;62.65
36222;BME280;22266;52.340;4.962;2022-07-23T05:43:29;101936.72;;;16.88;62.32
36222;BME280;22266;52.340;4.962;2022-07-23T05:45:59;101939.41;;;17.01;62.16
36222;BME280;22266;52.340;4.962;2022-07-23T05:48:25;101943.16;;;17.13;61.70
36222;BME280;22266;52.340;4.962;2022-07-23T05:51:00;101947.97;;;17.24;61.64
36222;BME280;22266;52.340;4.962;2022-07-23T05:53:30;101946.94;;;17.25;60.64
36222;BME280;22266;52.340;4.962;2022-07-23T05:55:59;101946.28;;;17.37;60.53
36222;BME280;22266;52.340;4.962;2022-07-23T05:58:26;101948.97;;;17.50;60.36
36222;BME280;22266;52.340;4.962;2022-07-23T06:00:52;101951.88;;;17.62;60.04
36222;BME280;22266;52.340;4.962;2022-07-23T06:03:19;101953.13;;;17.79;59.95
36222;BME280;22266;52.340;4.962;2022-07-23T06:05:46;101955.38;;;17.95;59.19
36222;BME280;22266;52.340;4.962;2022-07-23T06:08:12;101958.03;;;18.09;58.17
36222;BME280;22266;52.340;4.962;2022-07-23T06:10:39;101958.38;;;18.19;57.81
36222;BME280;22266;52.340;4.962;2022-07-23T06:13:05;101951.00;;;18.26;57.72
36222;BME280;22266;52.340;4.962;2022-07-23T06:15:32;101954.78;;;18.32;57.20
36222;BME280;22266;52.340;4.962;2022-07-23T06:17:59;101962.72;;;18.33;57.22
36222;BME280;22266;52.340;4.962;2022-07-23T06:20:25;101962.06;;;18.38;56.83
36222;BME280;22266;52.340;4.962;2022-07-23T06:22:52;101960.63;;;18.35;56.74
36222;BME280;22266;52.340;4.962;2022-07-23T06:25:18;101964.19;;;18.36;56.72
36222;BME280;22266;52.340;4.962;2022-07-23T06:27:47;101965.63;;;18.38;56.89
36222;BME280;22266;52.340;4.962;2022-07-23T06:30:14;101970.88;;;18.40;56.63
36222;BME280;22266;52.340;4.962;2022-07-23T06:32:46;101966.19;;;18.47;56.54
36222;BME280;22266;52.340;4.962;2022-07-23T06:35:15;101971.88;;;18.45;55.99
36222;BME280;22266;52.340;4.962;2022-07-23T06:37:41;101968.34;;;18.38;55.97
36222;BME280;22266;52.340;4.962;2022-07-23T06:40:09;101970.50;;;18.29;56.01
36222;BME280;22266;52.340;4.962;2022-07-23T06:42:36;101975.13;;;18.22;56.23
36222;BME280;22266;52.340;4.962;2022-07-23T06:45:06;101976.69;;;18.12;56.70
36222;BME280;22266;52.340;4.962;2022-07-23T06:47:35;101969.59;;;18.04;56.59
36222;BME280;22266;52.340;4.962;2022-07-23T06:50:02;101969.00;;;17.95;57.10
36222;BME280;22266;52.340;4.962;2022-07-23T06:52:28;101970.66;;;17.90;57.54
36222;BME280;22266;52.340;4.962;2022-07-23T06:54:55;101973.41;;;17.90;57.46
36222;BME280;22266;52.340;4.962;2022-07-23T06:57:21;101970.47;;;17.91;57.37
36222;BME280;22266;52.340;4.962;2022-07-23T06:59:48;101973.16;;;17.98;57.72
36222;BME280;22266;52.340;4.962;2022-07-23T07:02:20;101978.81;;;18.03;57.92
36222;BME280;22266;52.340;4.962;2022-07-23T07:04:47;101980.47;;;18.04;57.49
36222;BME280;22266;52.340;4.962;2022-07-23T07:07:14;101986.75;;;18.04;57.30
36222;BME280;22266;52.340;4.962;2022-07-23T07:09:40;101991.38;;;18.04;57.38
36222;BME280;22266;52.340;4.962;2022-07-23T07:12:07;101998.50;;;18.05;57.24
36222;BME280;22266;52.340;4.962;2022-07-23T07:14:33;101993.88;;;18.06;57.41
36222;BME280;22266;52.340;4.962;2022-07-23T07:17:00;101991.97;;;18.06;56.95
36222;BME280;22266;52.340;4.962;2022-07-23T07:19:26;101995.78;;;18.05;56.49
36222;BME280;22266;52.340;4.962;2022-07-23T07:21:53;101992.63;;;18.08;56.09
36222;BME280;22266;52.340;4.962;2022-07-23T07:24:19;102000.38;;;18.11;55.86
36222;BME280;22266;52.340;4.962;2022-07-23T07:26:45;101991.34;;;18.11;56.01
36222;BME280;22266;52.340;4.962;2022-07-23T07:29:12;102002.03;;;18.12;55.62
36222;BME280;22266;52.340;4.962;2022-07-23T07:31:38;102000.13;;;18.13;55.47
36222;BME280;22266;52.340;4.962;2022-07-23T07:34:05;102006.84;;;18.17;55.52
36222;BME280;22266;52.340;4.962;2022-07-23T07:36:32;102006.59;;;18.18;55.58
36222;BME280;22266;52.340;4.962;2022-07-23T07:38:59;102016.03;;;18.22;55.61
36222;BME280;22266;52.340;4.962;2022-07-23T07:41:26;102008.31;;;18.19;55.14
36222;BME280;22266;52.340;4.962;2022-07-23T07:43:52;102006.00;;;18.16;55.94
36222;BME280;22266;52.340;4.962;2022-07-23T07:46:19;102001.16;;;18.18;55.88
36222;BME280;22266;52.340;4.962;2022-07-23T07:48:45;101999.88;;;18.27;56.10
36222;BME280;22266;52.340;4.962;2022-07-23T07:51:12;102010.31;;;18.37;56.09
36222;BME280;22266;52.340;4.962;2022-07-23T07:53:38;102009.66;;;18.42;56.00
36222;BME280;22266;52.340;4.962;2022-07-23T07:56:05;102010.28;;;18.44;55.90
36222;BME280;22266;52.340;4.962;2022-07-23T07:58:31;102007.97;;;18.41;55.81
36222;BME280;22266;52.340;4.962;2022-07-23T08:00:58;102013.03;;;18.37;56.45
36222;BME280;22266;52.340;4.962;2022-07-23T08:03:25;102014.50;;;18.40;56.82
36222;BME280;22266;52.340;4.962;2022-07-23T08:05:51;102016.75;;;18.43;56.57
36222;BME280;22266;52.340;4.962;2022-07-23T08:08:17;102020.13;;;18.45;56.70
36222;BME280;22266;52.340;4.962;2022-07-23T08:10:44;102021.59;;;18.47;56.71
36222;BME280;22266;52.340;4.962;2022-07-23T08:13:15;102024.69;;;18.51;56.73
36222;BME280;22266;52.340;4.962;2022-07-23T08:15:43;102028.44;;;18.57;56.69
36222;BME280;22266;52.340;4.962;2022-07-23T08:18:12;102022.75;;;18.58;56.35
36222;BME280;22266;52.340;4.962;2022-07-23T08:20:38;102014.59;;;18.58;56.51
36222;BME280;22266;52.340;4.962;2022-07-23T08:23:06;102019.59;;;18.61;56.09
36222;BME280;22266;52.340;4.962;2022-07-23T08:25:36;102024.00;;;18.62;56.16
36222;BME280;22266;52.340;4.962;2022-07-23T08:28:05;102023.56;;;18.65;56.03
36222;BME280;22266;52.340;4.962;2022-07-23T08:30:32;102022.50;;;18.66;55.64
36222;BME280;22266;52.340;4.962;2022-07-23T08:33:01;102024.84;;;18.63;55.74
36222;BME280;22266;52.340;4.962;2022-07-23T08:35:36;102017.94;;;18.60;56.04
36222;BME280;22266;52.340;4.962;2022-07-23T08:38:05;102019.59;;;18.61;55.95
36222;BME280;22266;52.340;4.962;2022-07-23T08:40:34;102007.59;;;18.69;55.96
36222;BME280;22266;52.340;4.962;2022-07-23T08:43:12;102017.66;;;18.75;55.85
36222;BME280;22266;52.340;4.962;2022-07-23T08:45:41;102020.34;;;18.82;55.94
36222;BME280;22266;52.340;4.962;2022-07-23T08:48:16;102017.13;;;18.91;55.60
36222;BME280;22266;52.340;4.962;2022-07-23T08:50:53;102027.41;;;18.96;55.48
36222;BME280;22266;52.340;4.962;2022-07-23T08:53:24;102025.91;;;19.00;55.21
36222;BME280;22266;52.340;4.962;2022-07-23T08:55:53;102029.22;;;19.02;55.10
36222;BME280;22266;52.340;4.962;2022-07-23T08:58:21;102028.56;;;19.07;54.98
36222;BME280;22266;52.340;4.962;2022-07-23T09:00:54;102025.63;;;19.08;54.78
36222;BME280;22266;52.340;4.962;2022-07-23T09:03:28;102037.56;;;19.07;54.60
36222;BME280;22266;52.340;4.962;2022-07-23T09:05:56;102033.81;;;19.08;54.67
36222;BME280;22266;52.340;4.962;2022-07-23T09:11:03;102028.56;;;19.07;54.74
36222;BME280;22266;52.340;4.962;2022-07-23T09:13:36;102030.81;;;19.16;54.57
36222;BME280;22266;52.340;4.962;2022-07-23T09:16:25;102034.28;;;19.23;54.21
36222;BME280;22266;52.340;4.962;2022-07-23T09:19:00;102033.19;;;19.31;54.41
36222;BME280;22266;52.340;4.962;2022-07-23T09:21:30;102040.50;;;19.37;54.61
36222;BME280;22266;52.340;4.962;2022-07-23T09:24:05;102045.88;;;19.44;54.05
36222;BME280;22266;52.340;4.962;2022-07-23T09:26:36;102041.19;;;19.51;53.91
36222;BME280;22266;52.340;4.962;2022-07-23T09:29:05;102045.97;;;19.56;53.15
36222;BME280;22266;52.340;4.962;2022-07-23T09:31:43;102035.16;;;19.49;53.02
36222;BME280;22266;52.340;4.962;2022-07-23T09:34:17;102035.06;;;19.56;53.18
36222;BME280;22266;52.340;4.962;2022-07-23T09:36:45;102033.97;;;19.63;52.96
36222;BME280;22266;52.340;4.962;2022-07-23T09:39:13;102036.84;;;19.68;53.03
36222;BME280;22266;52.340;4.962;2022-07-23T09:41:42;102041.56;;;19.80;53.19
36222;BME280;22266;52.340;4.962;2022-07-23T09:44:11;102036.25;;;19.85;53.08
36222;BME280;22266;52.340;4.962;2022-07-23T09:46:39;102028.69;;;19.87;53.44
36222;BME280;22266;52.340;4.962;2022-07-23T09:49:18;102027.03;;;19.86;53.46
36222;BME280;22266;52.340;4.962;2022-07-23T09:51:51;102038.47;;;19.94;53.52
36222;BME280;22266;52.340;4.962;2022-07-23T09:54:37;102029.97;;;20.03;53.20
36222;BME280;22266;52.340;4.962;2022-07-23T09:57:10;102036.88;;;20.05;53.57
36222;BME280;22266;52.340;4.962;2022-07-23T09:59:44;102028.22;;;20.08;53.25
36222;BME280;22266;52.340;4.962;2022-07-23T10:02:13;102027.16;;;20.09;53.13
36222;BME280;22266;52.340;4.962;2022-07-23T10:04:59;102034.06;;;20.12;53.00
36222;BME280;22266;52.340;4.962;2022-07-23T10:07:47;102037.78;;;20.17;52.91
36222;BME280;22266;52.340;4.962;2022-07-23T10:10:39;102036.50;;;20.20;53.08
36222;BME280;22266;52.340;4.962;2022-07-23T10:13:30;102036.72;;;20.18;53.25
36222;BME280;22266;52.340;4.962;2022-07-23T10:16:01;102033.91;;;20.25;53.14
36222;BME280;22266;52.340;4.962;2022-07-23T10:18:29;102037.25;;;20.27;53.19
36222;BME280;22266;52.340;4.962;2022-07-23T10:20:56;102029.03;;;20.27;52.84
36222;BME280;22266;52.340;4.962;2022-07-23T10:23:36;102037.00;;;20.29;52.89
36222;BME280;22266;52.340;4.962;2022-07-23T10:26:19;102038.53;;;20.24;52.69
36222;BME280;22266;52.340;4.962;2022-07-23T10:34:55;102037.38;;;20.32;52.91
36222;BME280;22266;52.340;4.962;2022-07-23T10:37:36;102036.00;;;20.41;52.62
36222;BME280;22266;52.340;4.962;2022-07-23T10:40:19;102030.91;;;20.45;52.75
36222;BME280;22266;52.340;4.962;2022-07-23T10:42:47;102021.00;;;20.51;52.81
36222;BME280;22266;52.340;4.962;2022-07-23T10:45:34;102018.84;;;20.53;52.77
36222;BME280;22266;52.340;4.962;2022-07-23T10:48:25;102030.91;;;20.63;52.64
36222;BME280;22266;52.340;4.962;2022-07-23T10:51:13;102022.91;;;20.62;52.51
36222;BME280;22266;52.340;4.962;2022-07-23T10:56:17;102020.53;;;20.65;51.82
36222;BME280;22266;52.340;4.962;2022-07-23T10:58:48;102018.31;;;20.62;52.61
36222;BME280;22266;52.340;4.962;2022-07-23T11:01:35;102025.69;;;20.73;52.75
36222;BME280;22266;52.340;4.962;2022-07-23T11:04:03;102022.25;;;20.78;52.08
36222;BME280;22266;52.340;4.962;2022-07-23T11:09:30;102023.81;;;20.86;51.83
36222;BME280;22266;52.340;4.962;2022-07-23T11:17:25;102023.84;;;20.97;51.70
36222;BME280;22266;52.340;4.962;2022-07-23T11:20:13;102025.16;;;20.95;52.67
36222;BME280;22266;52.340;4.962;2022-07-23T11:25:12;102024.34;;;21.18;51.83
36222;BME280;22266;52.340;4.962;2022-07-23T11:27:41;102024.72;;;21.21;51.41
36222;BME280;22266;52.340;4.962;2022-07-23T11:30:09;102020.31;;;21.20;51.53
36222;BME280;22266;52.340;4.962;2022-07-23T11:32:39;102019.50;;;21.20;51.59
36222;BME280;22266;52.340;4.962;2022-07-23T11:35:23;102025.56;;;21.22;51.80
36222;BME280;22266;52.340;4.962;2022-07-23T11:37:53;102025.81;;;21.20;52.37
36222;BME280;22266;52.340;4.962;2022-07-23T11:40:24;102021.53;;;21.24;52.11
36222;BME280;22266;52.340;4.962;2022-07-23T11:42:54;102029.03;;;21.29;52.07
36222;BME280;22266;52.340;4.962;2022-07-23T11:45:22;102025.72;;;21.39;51.56
36222;BME280;22266;52.340;4.962;2022-07-23T11:47:49;102018.34;;;21.51;51.48
36222;BME280;22266;52.340;4.962;2022-07-23T11:50:15;102025.59;;;21.57;51.12
36222;BME280;22266;52.340;4.962;2022-07-23T11:52:42;102020.75;;;21.59;51.29
36222;BME280;22266;52.340;4.962;2022-07-23T11:55:10;102014.53;;;21.64;50.95
36222;BME280;22266;52.340;4.962;2022-07-23T11:57:40;102017.63;;;21.67;50.62
36222;BME280;22266;52.340;4.962;2022-07-23T12:00:12;102001.78;;;21.69;50.77
36222;BME280;22266;52.340;4.962;2022-07-23T12:02:44;102011.06;;;21.68;51.00
36222;BME280;22266;52.340;4.962;2022-07-23T12:05:13;102001.06;;;21.62;51.20
36222;BME280;22266;52.340;4.962;2022-07-23T12:07:42;102000.59;;;21.65;51.40
36222;BME280;22266;52.340;4.962;2022-07-23T12:10:12;102002.97;;;21.62;50.94
36222;BME280;22266;52.340;4.962;2022-07-23T12:12:49;101997.03;;;21.53;51.41
36222;BME280;22266;52.340;4.962;2022-07-23T12:15:18;102001.41;;;21.54;51.59
36222;BME280;22266;52.340;4.962;2022-07-23T12:17:46;102006.19;;;21.59;52.44
36222;BME280;22266;52.340;4.962;2022-07-23T12:20:21;102001.78;;;21.69;51.94
36222;BME280;22266;52.340;4.962;2022-07-23T12:22:52;102000.13;;;21.68;51.05
36222;BME280;22266;52.340;4.962;2022-07-23T12:25:21;101997.59;;;21.55;51.56
36222;BME280;22266;52.340;4.962;2022-07-23T12:27:59;101996.09;;;21.47;52.00
36222;BME280;22266;52.340;4.962;2022-07-23T12:30:30;101997.63;;;21.43;52.45
36222;BME280;22266;52.340;4.962;2022-07-23T12:33:01;101997.84;;;21.42;52.67
36222;BME280;22266;52.340;4.962;2022-07-23T12:35:34;101995.38;;;21.52;52.82
36222;BME280;22266;52.340;4.962;2022-07-23T12:38:06;101990.09;;;21.62;52.26
36222;BME280;22266;52.340;4.962;2022-07-23T12:43:07;101995.44;;;21.81;51.16
36222;BME280;22266;52.340;4.962;2022-07-23T12:45:52;101998.28;;;21.86;51.40
36222;BME280;22266;52.340;4.962;2022-07-23T12:48:27;101988.25;;;21.91;51.34
36222;BME280;22266;52.340;4.962;2022-07-23T12:50:56;101989.31;;;22.02;51.24
36222;BME280;22266;52.340;4.962;2022-07-23T12:53:32;101982.50;;;22.16;51.08
36222;BME280;22266;52.340;4.962;2022-07-23T12:56:02;101979.94;;;22.27;50.68
36222;BME280;22266;52.340;4.962;2022-07-23T12:58:49;101985.88;;;22.35;50.37
36222;BME280;22266;52.340;4.962;2022-07-23T13:06:53;101987.94;;;22.57;50.16
36222;BME280;22266;52.340;4.962;2022-07-23T13:09:22;101985.84;;;22.64;50.28
36222;BME280;22266;52.340;4.962;2022-07-23T13:11:52;101986.78;;;22.69;49.83
36222;BME280;22266;52.340;4.962;2022-07-23T13:14:23;101985.38;;;22.67;49.60
36222;BME280;22266;52.340;4.962;2022-07-23T13:16:53;101983.69;;;22.49;50.16
36222;BME280;22266;52.340;4.962;2022-07-23T13:19:22;101988.47;;;22.42;50.29
36222;BME280;22266;52.340;4.962;2022-07-23T13:21:52;101989.97;;;22.33;50.02
36222;BME280;22266;52.340;4.962;2022-07-23T13:24:20;101984.34;;;22.28;50.34
36222;BME280;22266;52.340;4.962;2022-07-23T13:26:47;101987.63;;;22.25;50.36
36222;BME280;22266;52.340;4.962;2022-07-23T13:29:15;101990.94;;;22.27;50.70
36222;BME280;22266;52.340;4.962;2022-07-23T13:31:43;101987.44;;;22.31;51.02